sensor_id;sensor_type;location;lat;lon;timestamp;pressure;altitude;pressure_sealevel;temperature;humidity
51781;BME280;37844;57.126;24.288;2023-03-03T00:00:07;100969.25;;;2.91;100.00
51781;BME280;37844;57.126;24.288;2023-03-03T00:02:33;100965.31;;;2.98;100.00
51781;BME280;37844;57.126;24.288;2023-03-03T00:04:58;100956.09;;;3.00;100.00
51781;BME280;37844;57.126;24.288;2023-03-03T00:07:24;100952.72;;;3.01;100.00
51781;BME280;37844;57.126;24.288;2023-03-03T00:09:50;100942.63;;;3.03;100.00
51781;BME280;37844;57.126;24.288;2023-03-03T00:12:20;100930.84;;;3.05;100.00
51781;BME280;37844;57.126;24.288;2023-03-03T00:14:47;100936.31;;;2.94;100.00
51781;BME280;37844;57.126;24.288;2023-03-03T00:17:23;100935.63;;;2.98;100.00
51781;BME280;37844;57.126;24.288;2023-03-03T00:19:49;100935.72;;;3.00;100.00
51781;BME280;37844;57.126;24.288;2023-03-03T00:22:26;100928.94;;;3.01;100.00
51781;BME280;37844;57.126;24.288;2023-03-03T00:24:53;100929.25;;;3.07;100.00
51781;BME280;37844;57.126;24.288;2023-03-03T00:29:48;100924.94;;;3.06;100.00
51781;BME280;37844;57.126;24.288;2023-03-03T00:34:40;100928.22;;;3.03;100.00
51781;BME280;37844;57.126;24.288;2023-03-03T00:37:50;100936.53;;;2.99;100.00
51781;BME280;37844;57.126;24.288;2023-03-03T00:40:10;100938.59;;;3.08;100.00
51781;BME280;37844;57.126;24.288;2023-03-03T00:42:37;100939.47;;;3.08;100.00
51781;BME280;37844;57.126;24.288;2023-03-03T00:45:07;100942.22;;;3.13;100.00
51781;BME280;37844;57.126;24.288;2023-03-03T00:47:42;100946.84;;;3.02;100.00
51781;BME280;37844;57.126;24.288;2023-03-03T00:52:37;100940.00;;;3.01;100.00
51781;BME280;37844;57.126;24.288;2023-03-03T00:55:04;100949.25;;;2.99;100.00
51781;BME280;37844;57.126;24.288;2023-03-03T00:57:30;100936.66;;;3.02;100.00
51781;BME280;37844;57.126;24.288;2023-03-03T00:59:55;100933.97;;;2.99;100.00
51781;BME280;37844;57.126;24.288;2023-03-03T01:02:20;100933.78;;;2.94;100.00
51781;BME280;37844;57.126;24.288;2023-03-03T01:04:48;100924.31;;;2.92;100.00
51781;BME280;37844;57.126;24.288;2023-03-03T01:07:13;100925.97;;;2.91;100.00
51781;BME280;37844;57.126;24.288;2023-03-03T01:09:39;100919.28;;;2.93;100.00
51781;BME280;37844;57.126;24.288;2023-03-03T01:12:04;100920.50;;;3.02;100.00
51781;BME280;37844;57.126;24.288;2023-03-03T01:14:30;100920.72;;;3.06;100.00
51781;BME280;37844;57.126;24.288;2023-03-03T01:16:55;100926.75;;;3.08;100.00
51781;BME280;37844;57.126;24.288;2023-03-03T01:19:21;100921.84;;;3.13;100.00
51781;BME280;37844;57.126;24.288;2023-03-03T01:21:46;100912.63;;;3.15;100.00
51781;BME280;37844;57.126;24.288;2023-03-03T01:24:11;100912.63;;;3.15;100.00
51781;BME280;37844;57.126;24.288;2023-03-03T01:26:37;100907.69;;;3.18;100.00
51781;BME280;37844;57.126;24.288;2023-03-03T01:29:02;100903.47;;;3.18;100.00
51781;BME280;37844;57.126;24.288;2023-03-03T01:31:27;100894.75;;;3.13;100.00
51781;BME280;37844;57.126;24.288;2023-03-03T01:33:59;100887.09;;;3.13;100.00
51781;BME280;37844;57.126;24.288;2023-03-03T01:36:25;100880.03;;;3.08;100.00
51781;BME280;37844;57.126;24.288;2023-03-03T01:38:59;100888.53;;;3.08;100.00
51781;BME280;37844;57.126;24.288;2023-03-03T01:41:28;100881.78;;;3.09;100.00
51781;BME280;37844;57.126;24.288;2023-03-03T01:43:54;100870.50;;;3.04;100.00
51781;BME280;37844;57.126;24.288;2023-03-03T01:49:10;100883.19;;;3.02;100.00
51781;BME280;37844;57.126;24.288;2023-03-03T01:51:38;100890.81;;;3.02;100.00
51781;BME280;37844;57.126;24.288;2023-03-03T01:54:10;100887.19;;;2.97;100.00
51781;BME280;37844;57.126;24.288;2023-03-03T01:56:36;100885.91;;;2.87;100.00
51781;BME280;37844;57.126;24.288;2023-03-03T01:59:06;100878.19;;;2.86;100.00
51781;BME280;37844;57.126;24.288;2023-03-03T02:01:33;100874.84;;;2.87;100.00
51781;BME280;37844;57.126;24.288;2023-03-03T02:03:59;100865.59;;;2.89;100.00
51781;BME280;37844;57.126;24.288;2023-03-03T02:06:30;100877.16;;;2.82;100.00
51781;BME280;37844;57.126;24.288;2023-03-03T02:09:09;100868.75;;;2.83;100.00
51781;BME280;37844;57.126;24.288;2023-03-03T02:11:37;100864.50;;;2.84;100.00
51781;BME280;37844;57.126;24.288;2023-03-03T02:14:03;100862.78;;;2.83;100.00
51781;BME280;37844;57.126;24.288;2023-03-03T02:16:29;100861.84;;;2.81;100.00
51781;BME280;37844;57.126;24.288;2023-03-03T02:18:54;100858.03;;;2.90;100.00
51781;BME280;37844;57.126;24.288;2023-03-03T02:21:20;100846.09;;;2.89;100.00
51781;BME280;37844;57.126;24.288;2023-03-03T02:26:16;100850.47;;;2.92;100.00
51781;BME280;37844;57.126;24.288;2023-03-03T02:28:43;100847.13;;;2.93;100.00
51781;BME280;37844;57.126;24.288;2023-03-03T02:31:10;100846.31;;;2.94;100.00
51781;BME280;37844;57.126;24.288;2023-03-03T02:33:40;100842.88;;;2.93;100.00
51781;BME280;37844;57.126;24.288;2023-03-03T02:36:09;100843.53;;;2.89;100.00
51781;BME280;37844;57.126;24.288;2023-03-03T02:46:07;100838.31;;;2.86;100.00
51781;BME280;37844;57.126;24.288;2023-03-03T02:48:32;100838.84;;;2.79;100.00
51781;BME280;37844;57.126;24.288;2023-03-03T02:50:58;100848.91;;;2.76;100.00
51781;BME280;37844;57.126;24.288;2023-03-03T02:53:23;100847.94;;;2.74;100.00
51781;BME280;37844;57.126;24.288;2023-03-03T02:55:49;100843.81;;;2.76;100.00
51781;BME280;37844;57.126;24.288;2023-03-03T02:58:14;100841.03;;;2.71;100.00
51781;BME280;37844;57.126;24.288;2023-03-03T03:00:39;100851.44;;;2.76;100.00
51781;BME280;37844;57.126;24.288;2023-03-03T03:03:04;100842.78;;;2.72;100.00
51781;BME280;37844;57.126;24.288;2023-03-03T03:05:30;100852.91;;;2.71;100.00
51781;BME280;37844;57.126;24.288;2023-03-03T03:07:55;100841.84;;;2.70;100.00
51781;BME280;37844;57.126;24.288;2023-03-03T03:10:21;100837.63;;;2.71;100.00
51781;BME280;37844;57.126;24.288;2023-03-03T03:12:46;100836.16;;;2.76;100.00
51781;BME280;37844;57.126;24.288;2023-03-03T03:15:11;100839.78;;;2.81;100.00
51781;BME280;37844;57.126;24.288;2023-03-03T03:17:37;100836.38;;;2.81;100.00
51781;BME280;37844;57.126;24.288;2023-03-03T03:20:03;100778.13;;;2.49;100.00
51781;BME280;37844;57.126;24.288;2023-03-03T03:22:28;100836.22;;;2.78;100.00
51781;BME280;37844;57.126;24.288;2023-03-03T03:24:54;100838.44;;;2.89;100.00
51781;BME280;37844;57.126;24.288;2023-03-03T03:27:19;100830.69;;;2.86;100.00
51781;BME280;37844;57.126;24.288;2023-03-03T03:29:44;100831.28;;;2.81;100.00
51781;BME280;37844;57.126;24.288;2023-03-03T03:32:10;100819.22;;;2.76;100.00
51781;BME280;37844;57.126;24.288;2023-03-03T03:34:36;100828.09;;;2.67;100.00
51781;BME280;37844;57.126;24.288;2023-03-03T03:37:02;100830.75;;;2.68;100.00
51781;BME280;37844;57.126;24.288;2023-03-03T03:39:27;100821.63;;;2.73;100.00
51781;BME280;37844;57.126;24.288;2023-03-03T03:41:53;100827.66;;;2.75;100.00
51781;BME280;37844;57.126;24.288;2023-03-03T03:44:18;100823.50;;;2.78;100.00
51781;BME280;37844;57.126;24.288;2023-03-03T03:46:43;100821.41;;;2.69;100.00
51781;BME280;37844;57.126;24.288;2023-03-03T03:49:09;100823.03;;;2.67;100.00
51781;BME280;37844;57.126;24.288;2023-03-03T03:51:34;100818.06;;;2.70;100.00
51781;BME280;37844;57.126;24.288;2023-03-03T03:54:02;100819.81;;;2.71;100.00
51781;BME280;37844;57.126;24.288;2023-03-03T03:56:27;100814.03;;;2.75;100.00
51781;BME280;37844;57.126;24.288;2023-03-03T03:58:53;100819.09;;;2.73;100.00
51781;BME280;37844;57.126;24.288;2023-03-03T04:01:18;100809.69;;;2.72;100.00
51781;BME280;37844;57.126;24.288;2023-03-03T04:03:43;100820.94;;;2.78;100.00
51781;BME280;37844;57.126;24.288;2023-03-03T04:06:09;100813.25;;;2.76;100.00
51781;BME280;37844;57.126;24.288;2023-03-03T04:08:34;100824.22;;;2.75;100.00
51781;BME280;37844;57.126;24.288;2023-03-03T04:10:59;100823.38;;;2.74;100.00
51781;BME280;37844;57.126;24.288;2023-03-03T04:13:28;100817.06;;;2.66;100.00
51781;BME280;37844;57.126;24.288;2023-03-03T04:15:56;100820.47;;;2.67;100.00
51781;BME280;37844;57.126;24.288;2023-03-03T04:18:21;100817.28;;;2.71;100.00
51781;BME280;37844;57.126;24.288;2023-03-03T04:20:46;100815.81;;;2.76;100.00
51781;BME280;37844;57.126;24.288;2023-03-03T04:23:12;100819.13;;;2.75;100.00
51781;BME280;37844;57.126;24.288;2023-03-03T04:25:38;100819.94;;;2.74;100.00
51781;BME280;37844;57.126;24.288;2023-03-03T04:28:04;100817.63;;;2.79;100.00
51781;BME280;37844;57.126;24.288;2023-03-03T04:30:30;100819.13;;;2.75;100.00
51781;BME280;37844;57.126;24.288;2023-03-03T04:32:55;100810.38;;;2.68;100.00
51781;BME280;37844;57.126;24.288;2023-03-03T04:35:21;100810.09;;;2.62;100.00
51781;BME280;37844;57.126;24.288;2023-03-03T04:37:46;100816.19;;;2.66;100.00
51781;BME280;37844;57.126;24.288;2023-03-03T04:40:12;100805.00;;;2.62;100.00
51781;BME280;37844;57.126;24.288;2023-03-03T04:42:37;100808.41;;;2.63;100.00
51781;BME280;37844;57.126;24.288;2023-03-03T04:45:03;100804.19;;;2.63;100.00
51781;BME280;37844;57.126;24.288;2023-03-03T04:47:29;100797.97;;;2.57;100.00
51781;BME280;37844;57.126;24.288;2023-03-03T04:49:56;100799.78;;;2.59;100.00
51781;BME280;37844;57.126;24.288;2023-03-03T04:52:21;100799.59;;;2.56;100.00
51781;BME280;37844;57.126;24.288;2023-03-03T04:54:47;100736.78;;;2.18;100.00
51781;BME280;37844;57.126;24.288;2023-03-03T04:57:12;100808.78;;;2.52;100.00
51781;BME280;37844;57.126;24.288;2023-03-03T04:59:37;100798.69;;;2.54;100.00
51781;BME280;37844;57.126;24.288;2023-03-03T05:02:03;100804.78;;;2.58;100.00
51781;BME280;37844;57.126;24.288;2023-03-03T05:04:29;100801.75;;;2.47;100.00
51781;BME280;37844;57.126;24.288;2023-03-03T05:06:54;100807.72;;;2.47;100.00
51781;BME280;37844;57.126;24.288;2023-03-03T05:09:21;100812.72;;;2.46;100.00
51781;BME280;37844;57.126;24.288;2023-03-03T05:11:47;100801.25;;;2.54;100.00
51781;BME280;37844;57.126;24.288;2023-03-03T05:14:12;100807.41;;;2.41;100.00
51781;BME280;37844;57.126;24.288;2023-03-03T05:16:37;100804.09;;;2.42;100.00
51781;BME280;37844;57.126;24.288;2023-03-03T05:19:03;100804.34;;;2.48;100.00
51781;BME280;37844;57.126;24.288;2023-03-03T05:21:28;100804.00;;;2.41;100.00
51781;BME280;37844;57.126;24.288;2023-03-03T05:23:53;100808.34;;;2.43;100.00
51781;BME280;37844;57.126;24.288;2023-03-03T05:26:19;100801.53;;;2.42;100.00
51781;BME280;37844;57.126;24.288;2023-03-03T05:28:44;100808.00;;;2.36;100.00
51781;BME280;37844;57.126;24.288;2023-03-03T05:31:09;100811.84;;;2.27;100.00
51781;BME280;37844;57.126;24.288;2023-03-03T05:33:35;100813.81;;;2.33;100.00
51781;BME280;37844;57.126;24.288;2023-03-03T05:36:01;100809.47;;;2.30;100.00
51781;BME280;37844;57.126;24.288;2023-03-03T05:38:26;100819.47;;;2.27;100.00
51781;BME280;37844;57.126;24.288;2023-03-03T05:40:51;100808.66;;;2.31;100.00
51781;BME280;37844;57.126;24.288;2023-03-03T05:43:18;100813.53;;;2.27;100.00
51781;BME280;37844;57.126;24.288;2023-03-03T05:45:44;100813.16;;;2.37;100.00
51781;BME280;37844;57.126;24.288;2023-03-03T05:48:09;100808.34;;;2.43;100.00
51781;BME280;37844;57.126;24.288;2023-03-03T05:50:36;100811.03;;;2.46;100.00
51781;BME280;37844;57.126;24.288;2023-03-03T05:53:02;100815.78;;;2.57;100.00
51781;BME280;37844;57.126;24.288;2023-03-03T05:55:27;100819.81;;;2.71;100.00
51781;BME280;37844;57.126;24.288;2023-03-03T05:57:53;100813.78;;;2.69;100.00
51781;BME280;37844;57.126;24.288;2023-03-03T06:00:19;100815.50;;;2.70;100.00
51781;BME280;37844;57.126;24.288;2023-03-03T06:02:44;100813.06;;;2.71;100.00
51781;BME280;37844;57.126;24.288;2023-03-03T06:05:10;100817.28;;;2.71;100.00
51781;BME280;37844;57.126;24.288;2023-03-03T06:07:35;100825.66;;;2.68;100.00
51781;BME280;37844;57.126;24.288;2023-03-03T06:10:01;100821.56;;;2.72;100.00
51781;BME280;37844;57.126;24.288;2023-03-03T06:12:26;100810.84;;;2.79;100.00
51781;BME280;37844;57.126;24.288;2023-03-03T06:14:51;100822.31;;;2.89;100.00
51781;BME280;37844;57.126;24.288;2023-03-03T06:17:17;100811.13;;;2.85;100.00
51781;BME280;37844;57.126;24.288;2023-03-03T06:19:42;100803.28;;;2.81;100.00
51781;BME280;37844;57.126;24.288;2023-03-03T06:22:08;100805.84;;;2.81;100.00
51781;BME280;37844;57.126;24.288;2023-03-03T06:24:33;100805.84;;;2.81;100.00
51781;BME280;37844;57.126;24.288;2023-03-03T06:26:59;100807.53;;;2.80;100.00
51781;BME280;37844;57.126;24.288;2023-03-03T06:29:25;100798.00;;;2.95;100.00
51781;BME280;37844;57.126;24.288;2023-03-03T06:31:50;100810.75;;;2.95;100.00
51781;BME280;37844;57.126;24.288;2023-03-03T06:34:16;100809.75;;;3.11;100.00
51781;BME280;37844;57.126;24.288;2023-03-03T06:36:41;100811.88;;;3.22;100.00
51781;BME280;37844;57.126;24.288;2023-03-03T06:39:06;100816.09;;;3.40;100.00
51781;BME280;37844;57.126;24.288;2023-03-03T06:41:32;100804.47;;;3.67;100.00
51781;BME280;37844;57.126;24.288;2023-03-03T06:43:57;100805.47;;;3.91;100.00
51781;BME280;37844;57.126;24.288;2023-03-03T06:46:24;100802.91;;;3.91;100.00
51781;BME280;37844;57.126;24.288;2023-03-03T06:48:50;100806.66;;;3.99;100.00
51781;BME280;37844;57.126;24.288;2023-03-03T06:51:26;100811.19;;;3.86;100.00
51781;BME280;37844;57.126;24.288;2023-03-03T06:53:55;100803.84;;;3.72;100.00
51781;BME280;37844;57.126;24.288;2023-03-03T06:56:24;100820.84;;;3.52;100.00
51781;BME280;37844;57.126;24.288;2023-03-03T06:58:52;100815.28;;;3.42;100.00
51781;BME280;37844;57.126;24.288;2023-03-03T07:01:18;100810.72;;;3.34;100.00
51781;BME280;37844;57.126;24.288;2023-03-03T07:03:43;100811.22;;;3.26;100.00
51781;BME280;37844;57.126;24.288;2023-03-03T07:06:23;100821.22;;;3.21;100.00
51781;BME280;37844;57.126;24.288;2023-03-03T07:08:50;100822.16;;;3.23;100.00
51781;BME280;37844;57.126;24.288;2023-03-03T07:11:17;100819.13;;;3.12;100.00
51781;BME280;37844;57.126;24.288;2023-03-03T07:13:51;100820.34;;;3.21;100.00
51781;BME280;37844;57.126;24.288;2023-03-03T07:16:18;100817.63;;;3.17;100.00
51781;BME280;37844;57.126;24.288;2023-03-03T07:18:49;100817.44;;;3.13;100.00
51781;BME280;37844;57.126;24.288;2023-03-03T07:23:43;100811.47;;;3.12;100.00
51781;BME280;37844;57.126;24.288;2023-03-03T07:26:11;100826.22;;;3.19;100.00
51781;BME280;37844;57.126;24.288;2023-03-03T07:28:39;100815.78;;;3.13;100.00
51781;BME280;37844;57.126;24.288;2023-03-03T07:31:16;100815.94;;;2.98;100.00
51781;BME280;37844;57.126;24.288;2023-03-03T07:33:49;100814.31;;;2.99;100.00
51781;BME280;37844;57.126;24.288;2023-03-03T07:36:21;100822.41;;;3.10;100.00
51781;BME280;37844;57.126;24.288;2023-03-03T07:38:53;100810.75;;;3.15;100.00
51781;BME280;37844;57.126;24.288;2023-03-03T07:41:22;100812.63;;;3.19;100.00
51781;BME280;37844;57.126;24.288;2023-03-03T07:43:51;100823.16;;;3.27;100.00
51781;BME280;37844;57.126;24.288;2023-03-03T07:46:28;100813.06;;;3.30;100.00
51781;BME280;37844;57.126;24.288;2023-03-03T07:48:55;100811.81;;;3.39;100.00
51781;BME280;37844;57.126;24.288;2023-03-03T07:51:22;100814.50;;;3.43;100.00
51781;BME280;37844;57.126;24.288;2023-03-03T07:53:53;100813.63;;;3.42;100.00
51781;BME280;37844;57.126;24.288;2023-03-03T07:56:26;100811.94;;;3.43;100.00
51781;BME280;37844;57.126;24.288;2023-03-03T07:58:52;100812.66;;;3.59;100.00
51781;BME280;37844;57.126;24.288;2023-03-03T08:11:46;100817.44;;;4.36;100.00
51781;BME280;37844;57.126;24.288;2023-03-03T08:14:14;100814.03;;;4.80;100.00
51781;BME280;37844;57.126;24.288;2023-03-03T08:16:40;100816.28;;;6.19;100.00
51781;BME280;37844;57.126;24.288;2023-03-03T08:19:06;100810.50;;;7.75;100.00
51781;BME280;37844;57.126;24.288;2023-03-03T08:21:31;100812.94;;;8.78;100.00
51781;BME280;37844;57.126;24.288;2023-03-03T08:23:58;100795.09;;;9.77;100.00
51781;BME280;37844;57.126;24.288;2023-03-03T08:26:24;100798.06;;;10.00;100.00
51781;BME280;37844;57.126;24.288;2023-03-03T08:28:50;100806.34;;;10.96;100.00
51781;BME280;37844;57.126;24.288;2023-03-03T08:31:15;100810.09;;;10.57;99.26
51781;BME280;37844;57.126;24.288;2023-03-03T08:33:44;100814.50;;;10.65;95.33
51781;BME280;37844;57.126;24.288;2023-03-03T08:36:10;100807.94;;;10.88;93.46
51781;BME280;37844;57.126;24.288;2023-03-03T08:38:36;100806.09;;;12.58;88.07
51781;BME280;37844;57.126;24.288;2023-03-03T08:41:03;100796.88;;;13.23;81.82
51781;BME280;37844;57.126;24.288;2023-03-03T08:43:28;100787.47;;;13.51;77.28
51781;BME280;37844;57.126;24.288;2023-03-03T08:45:57;100808.22;;;13.99;74.99
51781;BME280;37844;57.126;24.288;2023-03-03T08:48:23;100796.84;;;14.88;71.14
51781;BME280;37844;57.126;24.288;2023-03-03T08:50:49;100797.72;;;14.93;67.79
51781;BME280;37844;57.126;24.288;2023-03-03T08:53:14;100812.47;;;14.72;65.72
51781;BME280;37844;57.126;24.288;2023-03-03T08:55:40;100807.34;;;14.38;64.48
51781;BME280;37844;57.126;24.288;2023-03-03T08:58:06;100804.78;;;14.00;63.48
51781;BME280;37844;57.126;24.288;2023-03-03T09:00:31;100807.28;;;14.72;62.27
51781;BME280;37844;57.126;24.288;2023-03-03T09:02:57;100798.69;;;14.64;60.12
51781;BME280;37844;57.126;24.288;2023-03-03T09:05:31;100809.03;;;14.61;60.14
51781;BME280;37844;57.126;24.288;2023-03-03T09:07:57;100800.44;;;14.16;59.49
51781;BME280;37844;57.126;24.288;2023-03-03T09:10:24;100807.16;;;13.09;60.74
51781;BME280;37844;57.126;24.288;2023-03-03T09:13:02;100815.84;;;13.25;61.68
51781;BME280;37844;57.126;24.288;2023-03-03T09:15:33;100803.06;;;13.87;61.00
51781;BME280;37844;57.126;24.288;2023-03-03T09:17:59;100806.31;;;13.12;61.00
51781;BME280;37844;57.126;24.288;2023-03-03T09:20:37;100811.22;;;12.52;62.02
51781;BME280;37844;57.126;24.288;2023-03-03T09:25:47;100817.31;;;12.63;61.67
51781;BME280;37844;57.126;24.288;2023-03-03T09:28:23;100818.25;;;12.78;61.76
51781;BME280;37844;57.126;24.288;2023-03-03T09:30:49;100809.28;;;12.22;61.82
51781;BME280;37844;57.126;24.288;2023-03-03T09:34:00;100808.91;;;11.77;62.31
51781;BME280;37844;57.126;24.288;2023-03-03T09:38:45;100802.28;;;12.07;62.71
51781;BME280;37844;57.126;24.288;2023-03-03T09:49:15;100802.59;;;11.51;64.23
51781;BME280;37844;57.126;24.288;2023-03-03T09:54:30;100812.88;;;10.71;64.96
51781;BME280;37844;57.126;24.288;2023-03-03T10:02:42;100811.56;;;10.38;66.97
51781;BME280;37844;57.126;24.288;2023-03-03T10:10:52;100814.41;;;9.52;70.91
51781;BME280;37844;57.126;24.288;2023-03-03T10:23:25;100822.16;;;9.11;77.61
51781;BME280;37844;57.126;24.288;2023-03-03T10:26:47;100821.88;;;8.96;79.57
51781;BME280;37844;57.126;24.288;2023-03-03T10:31:36;100817.72;;;9.02;80.21
51781;BME280;37844;57.126;24.288;2023-03-03T10:34:18;100806.59;;;9.03;81.51
51781;BME280;37844;57.126;24.288;2023-03-03T10:39:28;100805.94;;;8.73;81.62
51781;BME280;37844;57.126;24.288;2023-03-03T10:44:30;100795.78;;;8.39;84.83
51781;BME280;37844;57.126;24.288;2023-03-03T10:57:21;100804.56;;;7.78;88.97
51781;BME280;37844;57.126;24.288;2023-03-03T11:00:14;100794.78;;;7.63;89.78
51781;BME280;37844;57.126;24.288;2023-03-03T11:10:10;100796.44;;;7.59;92.70
51781;BME280;37844;57.126;24.288;2023-03-03T11:12:46;100793.16;;;7.65;94.45
51781;BME280;37844;57.126;24.288;2023-03-03T11:22:47;100795.69;;;7.00;98.22
51781;BME280;37844;57.126;24.288;2023-03-03T11:30:34;100785.38;;;7.30;99.69
51781;BME280;37844;57.126;24.288;2023-03-03T11:33:09;100776.22;;;7.38;98.20
51781;BME280;37844;57.126;24.288;2023-03-03T11:35:39;100781.16;;;7.00;98.05
51781;BME280;37844;57.126;24.288;2023-03-03T11:45:39;100776.44;;;7.14;99.53
51781;BME280;37844;57.126;24.288;2023-03-03T11:51:00;100765.34;;;6.85;100.00
51781;BME280;37844;57.126;24.288;2023-03-03T11:55:55;100761.91;;;6.54;100.00
51781;BME280;37844;57.126;24.288;2023-03-03T11:58:33;100769.38;;;6.47;100.00
51781;BME280;37844;57.126;24.288;2023-03-03T12:04:04;100758.13;;;6.42;100.00
51781;BME280;37844;57.126;24.288;2023-03-03T12:11:50;100755.00;;;6.52;99.81
51781;BME280;37844;57.126;24.288;2023-03-03T12:14:33;100755.69;;;6.46;100.00
51781;BME280;37844;57.126;24.288;2023-03-03T12:22:30;100746.13;;;6.41;99.03
51781;BME280;37844;57.126;24.288;2023-03-03T12:27:32;100734.28;;;6.44;98.57
51781;BME280;37844;57.126;24.288;2023-03-03T12:33:03;100736.06;;;6.47;100.00
51781;BME280;37844;57.126;24.288;2023-03-03T12:40:40;100742.97;;;6.49;100.00
51781;BME280;37844;57.126;24.288;2023-03-03T12:48:16;100719.25;;;6.26;100.00
51781;BME280;37844;57.126;24.288;2023-03-03T12:50:50;100712.47;;;6.27;100.00
51781;BME280;37844;57.126;24.288;2023-03-03T12:56:07;100709.41;;;6.40;100.00
51781;BME280;37844;57.126;24.288;2023-03-03T13:11:50;100679.59;;;5.85;99.68
51781;BME280;37844;57.126;24.288;2023-03-03T13:16:48;100655.19;;;5.94;97.79
51781;BME280;37844;57.126;24.288;2023-03-03T13:19:21;100655.56;;;5.80;98.31
51781;BME280;37844;57.126;24.288;2023-03-03T13:22:01;100644.09;;;5.94;99.11
51781;BME280;37844;57.126;24.288;2023-03-03T13:27:10;100652.81;;;6.01;98.18
51781;BME280;37844;57.126;24.288;2023-03-03T13:32:02;100647.25;;;5.87;97.38
51781;BME280;37844;57.126;24.288;2023-03-03T13:34:36;100643.72;;;6.10;99.20
51781;BME280;37844;57.126;24.288;2023-03-03T13:39:29;100639.75;;;5.93;98.25
51781;BME280;37844;57.126;24.288;2023-03-03T13:42:01;100634.25;;;5.79;98.48
51781;BME280;37844;57.126;24.288;2023-03-03T13:47:04;100623.75;;;5.71;99.91
51781;BME280;37844;57.126;24.288;2023-03-03T13:52:19;100616.97;;;5.72;100.00
51781;BME280;37844;57.126;24.288;2023-03-03T13:54:58;100615.56;;;5.55;99.64
51781;BME280;37844;57.126;24.288;2023-03-03T13:57:37;100607.38;;;5.38;100.00
51781;BME280;37844;57.126;24.288;2023-03-03T14:13:07;100577.16;;;4.99;100.00
51781;BME280;37844;57.126;24.288;2023-03-03T14:15:34;100576.91;;;4.91;100.00
51781;BME280;37844;57.126;24.288;2023-03-03T14:20:36;100569.38;;;4.96;100.00
51781;BME280;37844;57.126;24.288;2023-03-03T14:23:09;100570.28;;;4.96;100.00
51781;BME280;37844;57.126;24.288;2023-03-03T14:28:21;100562.56;;;4.95;100.00
51781;BME280;37844;57.126;24.288;2023-03-03T14:30:47;100554.50;;;4.82;100.00
51781;BME280;37844;57.126;24.288;2023-03-03T14:40:34;100548.63;;;4.59;100.00
51781;BME280;37844;57.126;24.288;2023-03-03T14:43:00;100538.94;;;4.51;100.00
51781;BME280;37844;57.126;24.288;2023-03-03T14:47:58;100535.38;;;4.45;100.00
51781;BME280;37844;57.126;24.288;2023-03-03T14:50:37;100531.25;;;4.49;100.00
51781;BME280;37844;57.126;24.288;2023-03-03T14:55:44;100515.09;;;4.49;100.00
51781;BME280;37844;57.126;24.288;2023-03-03T15:06:48;100493.16;;;4.55;100.00
51781;BME280;37844;57.126;24.288;2023-03-03T15:11:52;100492.75;;;4.43;100.00
51781;BME280;37844;57.126;24.288;2023-03-03T15:14:19;100483.41;;;4.43;100.00
51781;BME280;37844;57.126;24.288;2023-03-03T15:16:45;100485.69;;;4.34;100.00
51781;BME280;37844;57.126;24.288;2023-03-03T15:21:54;100472.00;;;4.32;100.00
51781;BME280;37844;57.126;24.288;2023-03-03T15:24:24;100468.53;;;4.30;100.00
51781;BME280;37844;57.126;24.288;2023-03-03T15:26:53;100466.94;;;4.34;100.00
51781;BME280;37844;57.126;24.288;2023-03-03T15:29:40;100460.88;;;4.30;100.00
51781;BME280;37844;57.126;24.288;2023-03-03T15:32:25;100450.34;;;4.21;100.00
51781;BME280;37844;57.126;24.288;2023-03-03T15:37:44;100441.63;;;4.14;100.00
51781;BME280;37844;57.126;24.288;2023-03-03T15:58:22;100400.03;;;4.17;100.00
51781;BME280;37844;57.126;24.288;2023-03-03T16:03:32;100395.72;;;4.14;100.00
51781;BME280;37844;57.126;24.288;2023-03-03T16:06:10;100394.00;;;4.13;100.00
51781;BME280;37844;57.126;24.288;2023-03-03T16:08:52;100390.44;;;4.10;100.00
51781;BME280;37844;57.126;24.288;2023-03-03T16:27:05;100370.91;;;4.10;100.00
51781;BME280;37844;57.126;24.288;2023-03-03T16:32:09;100354.34;;;3.97;100.00
51781;BME280;37844;57.126;24.288;2023-03-03T16:37:18;100340.91;;;4.03;100.00
51781;BME280;37844;57.126;24.288;2023-03-03T16:42:29;100322.81;;;4.21;100.00
51781;BME280;37844;57.126;24.288;2023-03-03T16:45:00;100314.09;;;4.14;100.00
51781;BME280;37844;57.126;24.288;2023-03-03T16:53:17;100311.63;;;4.17;100.00
51781;BME280;37844;57.126;24.288;2023-03-03T17:08:53;100301.56;;;4.22;100.00
51781;BME280;37844;57.126;24.288;2023-03-03T17:37:18;100225.22;;;3.99;100.00
51781;BME280;37844;57.126;24.288;2023-03-03T17:44:50;100223.44;;;3.97;100.00
51781;BME280;37844;57.126;24.288;2023-03-03T17:47:32;100222.44;;;3.92;100.00
51781;BME280;37844;57.126;24.288;2023-03-03T18:23:39;100161.31;;;3.66;100.00
51781;BME280;37844;57.126;24.288;2023-03-03T18:28:52;100153.44;;;3.60;100.00
51781;BME280;37844;57.126;24.288;2023-03-03T18:31:29;100134.59;;;3.55;100.00
51781;BME280;37844;57.126;24.288;2023-03-03T18:39:05;100133.50;;;3.47;100.00
51781;BME280;37844;57.126;24.288;2023-03-03T18:42:02;100113.00;;;3.42;100.00
51781;BME280;37844;57.126;24.288;2023-03-03T18:44:23;100113.06;;;3.45;100.00
51781;BME280;37844;57.126;24.288;2023-03-03T18:46:50;100097.59;;;3.39;100.00
51781;BME280;37844;57.126;24.288;2023-03-03T18:49:17;100085.69;;;3.38;100.00
51781;BME280;37844;57.126;24.288;2023-03-03T18:57:18;100069.81;;;3.19;100.00